This is the latest recevied weather packets stored in our database for station/object PU2UHW-13. If no packets are shown the sender has not sent any weather packets the latest 1 day(s).
| Time | Temp. | Humidity | Pressure | Rain* | Wind** | Luminosity | Snow |
|---|---|---|---|---|---|---|---|
| 1778046654 | 16.11° C | 81% | 1025.3 hPa | - | - | - | - |
| 1778045754 | 16.67° C | 80% | 1025.3 hPa | - | - | - | - |
| 1778045574 | 16.11° C | 82% | 1025.3 hPa | - | - | - | - |
| 1778045394 | 16.11° C | 81% | 1025.3 hPa | - | - | - | - |
| 1778044854 | 17.22° C | 77% | 1024.9 hPa | - | - | - | - |
| 1778044494 | 16.67° C | 79% | 1024.9 hPa | - | - | - | - |
| 1778044314 | 16.67° C | 78% | 1024.9 hPa | - | - | - | - |
| 1778044134 | 16.67° C | 78% | 1024.9 hPa | - | - | - | - |
| 1778043954 | 16.11° C | 79% | 1025 hPa | - | - | - | - |
| 1778043054 | 16.67° C | 76% | 1024.9 hPa | - | - | - | - |
| 1778042874 | 16.11° C | 77% | 1025.1 hPa | - | - | - | - |
| 1778042694 | 16.11° C | 78% | 1025.1 hPa | - | - | - | - |
| 1778042514 | 16.67° C | 78% | 1025 hPa | - | - | - | - |
| 1778042334 | 16.11° C | 80% | 1025.2 hPa | - | - | - | - |
| 1778042154 | 16.11° C | 81% | 1025.2 hPa | - | - | - | - |
| 1778041974 | 16.11° C | 82% | 1025.1 hPa | - | - | - | - |
| 1778041794 | 16.11° C | 81% | 1024.8 hPa | - | - | - | - |
| 1778041614 | 16.11° C | 82% | 1024.8 hPa | - | - | - | - |
| 1778041434 | 16.11° C | 82% | 1024.8 hPa | - | - | - | - |
| 1778041254 | 16.11° C | 81% | 1024.7 hPa | - | - | - | - |
| 1778041074 | 16.67° C | 81% | 1024.6 hPa | - | - | - | - |
| 1778040894 | 16.11° C | 82% | 1024.8 hPa | - | - | - | - |
| 1778040714 | 16.11° C | 82% | 1024.9 hPa | - | - | - | - |
| 1778040534 | 16.67° C | 81% | 1024.7 hPa | - | - | - | - |
| 1778040354 | 16.67° C | 81% | 1024.7 hPa | - | - | - | - |
* Rain since midnight (hover to see other rain measurements)
** Current wind speed in m/s (hover to see current wind gust speed)